createdAt,value
2022-08-19T00:01:56.207Z,20.60
2022-08-19T00:04:27.144Z,20.70
2022-08-19T00:06:54.799Z,20.70
2022-08-19T00:09:23.792Z,20.70
2022-08-19T00:11:52.202Z,20.80
2022-08-19T00:14:21.810Z,20.90
2022-08-19T00:16:49.893Z,20.90
2022-08-19T00:19:17.754Z,20.90
2022-08-19T00:21:46.319Z,20.90
2022-08-19T00:24:15.996Z,20.90
2022-08-19T00:26:44.709Z,20.90
2022-08-19T00:29:14.551Z,20.90
2022-08-19T00:31:42.935Z,20.90
2022-08-19T00:34:11.535Z,20.90
2022-08-19T00:36:39.643Z,20.80
2022-08-19T00:41:34.753Z,20.80
2022-08-19T00:44:16.477Z,20.80
2022-08-19T00:46:57.716Z,20.70
2022-08-19T00:49:42.720Z,20.60
2022-08-19T00:52:34.920Z,20.60
2022-08-19T00:55:03.996Z,20.50
2022-08-19T00:57:47.355Z,20.50
2022-08-19T01:00:19.742Z,20.50
2022-08-19T01:02:48.550Z,20.40
2022-08-19T01:05:22.230Z,20.30
2022-08-19T01:07:50.413Z,20.30
2022-08-19T01:10:20.970Z,20.20
2022-08-19T01:12:51.464Z,20.10
2022-08-19T01:15:25.813Z,20.00
2022-08-19T01:17:54.454Z,20.00
2022-08-19T01:20:24.425Z,20.00
2022-08-19T01:22:54.700Z,19.90
2022-08-19T01:25:29.435Z,20.30
2022-08-19T01:28:06.423Z,19.80
2022-08-19T01:30:39.198Z,19.70
2022-08-19T01:33:12.327Z,19.60
2022-08-19T01:35:43.209Z,19.70
2022-08-19T01:38:23.395Z,19.50
2022-08-19T01:40:52.529Z,19.60
2022-08-19T01:43:20.450Z,19.40
2022-08-19T01:45:47.960Z,19.60
2022-08-19T01:48:16.107Z,19.60
2022-08-19T01:50:44.628Z,20.20
2022-08-19T01:55:43.852Z,19.80
2022-08-19T01:58:16.420Z,19.80
2022-08-19T02:00:44.924Z,19.80
2022-08-19T02:03:13.888Z,20.20
2022-08-19T02:05:44.012Z,19.90
2022-08-19T02:08:12.352Z,20.00
2022-08-19T02:10:44.117Z,19.90
2022-08-19T02:13:14.521Z,19.80
2022-08-19T02:15:44.581Z,19.90
2022-08-19T02:18:12.169Z,19.80
2022-08-19T02:20:43.825Z,20.30
2022-08-19T02:23:13.787Z,19.70
2022-08-19T02:25:45.388Z,19.80
2022-08-19T02:28:17.931Z,19.80
2022-08-19T02:30:47.180Z,19.90
2022-08-19T02:33:14.753Z,19.80
2022-08-19T02:35:48.841Z,19.80
2022-08-19T02:38:26.878Z,19.80
2022-08-19T02:43:33.711Z,19.80
2022-08-19T02:46:02.745Z,19.90
2022-08-19T02:48:30.389Z,19.70
2022-08-19T02:50:57.969Z,19.50
2022-08-19T02:53:28.214Z,19.80
2022-08-19T02:55:55.600Z,19.80
2022-08-19T02:58:25.016Z,19.60
2022-08-19T03:00:57.255Z,19.60
2022-08-19T03:03:24.952Z,19.60
2022-08-19T03:05:56.432Z,19.70
2022-08-19T03:08:26.672Z,19.70
2022-08-19T03:10:54.454Z,19.40
2022-08-19T03:13:22.058Z,19.40
2022-08-19T03:15:50.073Z,19.50
2022-08-19T03:18:18.436Z,19.40
2022-08-19T03:23:17.286Z,19.40
2022-08-19T03:25:47.554Z,19.40
2022-08-19T03:28:30.095Z,19.40
2022-08-19T03:31:02.832Z,19.30
2022-08-19T03:33:35.078Z,19.40
2022-08-19T03:36:10.866Z,19.40
2022-08-19T03:38:41.390Z,19.30
2022-08-19T03:41:11.570Z,19.40
2022-08-19T03:43:40.926Z,19.30
2022-08-19T03:46:13.001Z,19.40
2022-08-19T03:48:42.436Z,19.50
2022-08-19T03:51:16.443Z,19.50
2022-08-19T03:53:44.022Z,19.60
2022-08-19T03:56:11.778Z,19.70
2022-08-19T03:58:40.821Z,20.10
2022-08-19T04:01:12.347Z,19.80
2022-08-19T04:03:43.124Z,19.90
2022-08-19T04:06:22.530Z,19.90
2022-08-19T04:08:51.925Z,20.10
2022-08-19T04:11:24.360Z,20.20
2022-08-19T04:14:14.268Z,20.40
2022-08-19T04:16:41.793Z,20.70
2022-08-19T04:19:09.540Z,20.70
2022-08-19T04:21:39.739Z,20.60
2022-08-19T04:24:07.541Z,21.20
2022-08-19T04:26:38.065Z,21.40
2022-08-19T04:29:12.191Z,21.70
2022-08-19T04:31:41.999Z,21.90
2022-08-19T04:34:13.618Z,21.90
2022-08-19T04:36:42.303Z,22.00
2022-08-19T04:39:14.996Z,22.10
2022-08-19T04:42:01.277Z,21.90
2022-08-19T04:44:33.095Z,22.10
2022-08-19T04:47:01.660Z,22.00
2022-08-19T04:49:29.066Z,22.20
2022-08-19T04:51:56.877Z,22.20
2022-08-19T04:54:37.310Z,22.30
2022-08-19T04:57:11.403Z,22.50
2022-08-19T04:59:40.707Z,22.70
2022-08-19T05:02:09.905Z,22.70
2022-08-19T05:04:40.335Z,22.80
2022-08-19T05:07:10.902Z,23.00
2022-08-19T05:12:29.394Z,22.80
2022-08-19T05:14:58.064Z,22.90
2022-08-19T05:17:28.391Z,22.90
2022-08-19T05:20:15.292Z,22.70
2022-08-19T05:22:44.352Z,22.70
2022-08-19T05:25:18.563Z,22.50
2022-08-19T05:27:46.187Z,22.90
2022-08-19T05:30:13.811Z,22.60
2022-08-19T05:32:41.314Z,21.90
2022-08-19T05:35:09.384Z,22.70
2022-08-19T05:37:37.115Z,22.70
2022-08-19T05:40:05.243Z,22.60
2022-08-19T05:42:32.792Z,22.60
2022-08-19T05:45:00.609Z,22.70
2022-08-19T05:47:28.472Z,22.90
2022-08-19T05:49:56.223Z,23.30
2022-08-19T05:52:25.787Z,23.80
2022-08-19T05:54:56.327Z,24.20
2022-08-19T05:57:25.072Z,24.60
2022-08-19T05:59:58.600Z,25.00
2022-08-19T06:02:27.967Z,25.50
2022-08-19T06:04:55.737Z,26.10
2022-08-19T06:07:23.105Z,26.60
2022-08-19T06:09:59.159Z,26.60
2022-08-19T06:12:32.635Z,26.60
2022-08-19T06:15:02.109Z,26.70
2022-08-19T06:17:32.859Z,26.90
2022-08-19T06:20:06.026Z,27.00
2022-08-19T06:22:38.166Z,27.20
2022-08-19T06:25:06.432Z,27.30
2022-08-19T06:27:37.841Z,27.40
2022-08-19T06:30:07.870Z,27.30
2022-08-19T06:32:38.804Z,27.70
2022-08-19T06:35:09.624Z,27.90
2022-08-19T06:42:40.228Z,29.30
2022-08-19T06:45:17.066Z,29.30
2022-08-19T06:50:15.705Z,30.00
2022-08-19T06:55:10.841Z,30.90
2022-08-19T06:57:39.159Z,31.30
2022-08-19T07:00:12.951Z,32.40
2022-08-19T07:02:42.617Z,32.20
2022-08-19T07:05:11.029Z,32.70
2022-08-19T07:07:38.334Z,32.60
2022-08-19T07:10:07.815Z,32.70
2022-08-19T07:12:36.138Z,32.70
2022-08-19T07:15:12.231Z,32.60
2022-08-19T07:17:40.396Z,32.60
2022-08-19T07:20:11.014Z,33.10
2022-08-19T07:22:40.341Z,33.30
2022-08-19T07:25:11.085Z,33.30
2022-08-19T07:27:39.524Z,33.80
2022-08-19T07:32:39.453Z,34.70
2022-08-19T07:35:07.371Z,35.10
2022-08-19T07:37:38.204Z,34.60
2022-08-19T07:40:07.906Z,34.80
2022-08-19T07:45:07.368Z,35.50
2022-08-19T07:47:49.106Z,36.00
2022-08-19T07:50:19.634Z,35.70
2022-08-19T07:52:48.842Z,35.10
2022-08-19T07:55:40.045Z,35.00
2022-08-19T07:58:07.031Z,33.90
2022-08-19T08:00:36.919Z,35.50
2022-08-19T08:08:36.977Z,35.70
2022-08-19T08:11:07.764Z,35.80
2022-08-19T08:16:10.424Z,36.30
2022-08-19T08:18:43.381Z,36.80
2022-08-19T08:21:20.532Z,36.00
2022-08-19T08:23:48.415Z,36.00
2022-08-19T08:28:49.499Z,36.40
2022-08-19T08:31:17.409Z,35.40
2022-08-19T08:33:44.967Z,34.50
2022-08-19T08:36:14.740Z,34.30
2022-08-19T08:38:43.502Z,34.20
2022-08-19T08:41:42.923Z,34.60
2022-08-19T08:44:20.112Z,35.50
2022-08-19T08:46:59.466Z,36.10
2022-08-19T08:49:51.304Z,35.80
2022-08-19T08:52:36.489Z,35.70
2022-08-19T08:55:12.397Z,35.50
2022-08-19T08:57:41.011Z,36.20
2022-08-19T09:02:50.333Z,36.70
2022-08-19T09:08:08.153Z,37.30
2022-08-19T09:10:45.062Z,37.50
2022-08-19T09:13:37.396Z,37.20
2022-08-19T09:19:02.682Z,36.30
2022-08-19T09:21:34.302Z,36.60
2022-08-19T09:24:03.701Z,36.90
2022-08-19T09:26:48.494Z,37.70
2022-08-19T09:29:23.026Z,37.70
2022-08-19T09:31:51.195Z,37.60
2022-08-19T09:34:22.099Z,36.20
2022-08-19T09:36:54.546Z,38.10
2022-08-19T09:39:25.416Z,37.80
2022-08-19T09:42:04.778Z,38.00
2022-08-19T09:44:34.660Z,37.40
2022-08-19T09:47:02.927Z,36.50
2022-08-19T09:49:30.669Z,34.60
2022-08-19T09:51:59.589Z,35.50
2022-08-19T09:54:29.672Z,36.70
2022-08-19T09:56:59.876Z,36.70
2022-08-19T09:59:27.952Z,37.40
2022-08-19T10:01:55.512Z,36.90
2022-08-19T10:07:20.297Z,35.10
2022-08-19T10:09:48.119Z,34.70
2022-08-19T10:12:20.116Z,35.10
2022-08-19T10:14:47.605Z,35.20
2022-08-19T10:17:20.818Z,35.70
2022-08-19T10:19:55.543Z,35.40
2022-08-19T10:22:25.454Z,35.70
2022-08-19T10:24:53.876Z,35.70
2022-08-19T10:27:21.167Z,35.70
2022-08-19T10:29:49.035Z,36.00
2022-08-19T10:32:19.190Z,35.80
2022-08-19T10:35:09.034Z,35.30
2022-08-19T10:37:43.480Z,36.70
2022-08-19T10:40:25.272Z,36.30
2022-08-19T10:42:56.515Z,35.50
2022-08-19T10:45:26.106Z,34.90
2022-08-19T10:47:55.852Z,34.50
2022-08-19T10:50:42.855Z,34.70
2022-08-19T10:53:10.794Z,34.90
2022-08-19T10:55:57.399Z,35.00
2022-08-19T10:58:28.042Z,35.30
2022-08-19T11:00:57.824Z,35.80
2022-08-19T11:06:04.808Z,35.10
2022-08-19T11:08:33.347Z,35.40
2022-08-19T11:11:02.231Z,35.90
2022-08-19T11:13:31.034Z,35.50
2022-08-19T11:16:07.994Z,35.10
2022-08-19T11:19:02.665Z,35.10
2022-08-19T11:21:32.878Z,35.20
2022-08-19T11:24:04.287Z,34.60
2022-08-19T11:26:33.161Z,34.50
2022-08-19T11:29:01.462Z,34.10
2022-08-19T11:31:34.777Z,34.00
2022-08-19T11:34:04.448Z,34.30
2022-08-19T11:36:34.375Z,34.70
2022-08-19T11:39:02.807Z,34.90
2022-08-19T11:44:00.569Z,35.20
2022-08-19T11:46:31.104Z,34.70
2022-08-19T11:49:00.481Z,35.20
2022-08-19T11:51:29.350Z,35.20
2022-08-19T11:53:58.118Z,35.60
2022-08-19T11:56:26.120Z,36.00
2022-08-19T11:58:55.298Z,36.10
2022-08-19T12:01:24.770Z,36.00
2022-08-19T12:03:53.077Z,35.00
2022-08-19T12:06:29.701Z,34.50
2022-08-19T12:08:58.890Z,33.90
2022-08-19T12:11:26.856Z,33.60
2022-08-19T12:13:54.701Z,33.40
2022-08-19T12:16:27.813Z,33.00
2022-08-19T12:19:00.082Z,33.10
2022-08-19T12:21:31.543Z,33.10
2022-08-19T12:24:02.799Z,33.10
2022-08-19T12:26:32.529Z,33.00
2022-08-19T12:29:00.708Z,33.40
2022-08-19T12:31:31.657Z,33.10
2022-08-19T12:33:59.842Z,32.90
2022-08-19T12:36:27.210Z,32.60
2022-08-19T12:38:56.782Z,32.30
2022-08-19T12:41:26.843Z,32.20
2022-08-19T12:43:54.307Z,32.30
2022-08-19T12:46:23.760Z,32.70
2022-08-19T12:48:56.220Z,33.10
2022-08-19T12:53:51.411Z,33.10
2022-08-19T12:56:23.049Z,33.00
2022-08-19T12:58:53.058Z,32.60
2022-08-19T13:01:23.168Z,32.60
2022-08-19T13:03:53.530Z,32.40
2022-08-19T13:06:23.863Z,31.90
2022-08-19T13:08:51.466Z,31.90
2022-08-19T13:11:21.005Z,31.80
2022-08-19T13:13:49.183Z,31.70
2022-08-19T13:16:16.835Z,31.90
2022-08-19T13:18:48.340Z,31.90
2022-08-19T13:21:16.266Z,31.90
2022-08-19T13:23:43.672Z,31.90
2022-08-19T13:26:12.866Z,32.20
2022-08-19T13:29:00.356Z,32.10
2022-08-19T13:31:47.881Z,32.10
2022-08-19T13:34:17.289Z,32.00
2022-08-19T13:36:44.793Z,32.00
2022-08-19T13:39:15.015Z,32.20
2022-08-19T13:41:49.080Z,32.10
2022-08-19T13:44:19.234Z,31.50
2022-08-19T13:46:49.640Z,31.70
2022-08-19T13:49:24.215Z,31.50
2022-08-19T13:51:54.999Z,31.50
2022-08-19T13:54:22.764Z,31.30
2022-08-19T13:56:50.407Z,31.20
2022-08-19T13:59:18.788Z,31.10
2022-08-19T14:01:51.110Z,30.70
2022-08-19T14:04:18.921Z,30.30
2022-08-19T14:06:46.483Z,30.10
2022-08-19T14:09:14.002Z,30.00
2022-08-19T14:11:46.650Z,30.00
2022-08-19T14:14:16.454Z,29.90
2022-08-19T14:16:43.918Z,30.00
2022-08-19T14:19:11.515Z,29.80
2022-08-19T14:21:41.647Z,29.60
2022-08-19T14:24:09.851Z,29.50
2022-08-19T14:26:37.564Z,29.30
2022-08-19T14:29:05.157Z,29.10
2022-08-19T14:31:32.594Z,29.00
2022-08-19T14:34:00.447Z,29.00
2022-08-19T14:36:27.999Z,29.90
2022-08-19T14:38:55.722Z,29.00
2022-08-19T14:41:24.636Z,28.90
2022-08-19T14:43:54.940Z,28.80
2022-08-19T14:46:29.594Z,29.20
2022-08-19T14:51:27.978Z,28.50
2022-08-19T14:53:56.127Z,28.30
2022-08-19T14:56:27.262Z,28.40
2022-08-19T14:59:00.170Z,28.50
2022-08-19T15:08:52.860Z,26.80
2022-08-19T15:16:18.788Z,27.70
2022-08-19T15:18:48.010Z,27.80
2022-08-19T15:21:27.151Z,27.90
2022-08-19T15:23:56.690Z,27.80
2022-08-19T15:26:25.755Z,27.60
2022-08-19T15:28:53.287Z,27.50
2022-08-19T15:31:28.096Z,27.60
2022-08-19T15:33:58.720Z,27.60
2022-08-19T15:36:27.281Z,27.60
2022-08-19T15:38:56.133Z,27.60
2022-08-19T15:41:29.117Z,27.60
2022-08-19T15:43:59.847Z,27.50
2022-08-19T15:46:31.076Z,27.50
2022-08-19T15:51:30.568Z,27.40
2022-08-19T15:56:27.529Z,27.10
2022-08-19T15:59:17.485Z,27.20
2022-08-19T16:02:04.043Z,27.40
2022-08-19T16:04:49.746Z,27.00
2022-08-19T16:09:50.994Z,26.80
2022-08-19T16:14:48.734Z,26.70
2022-08-19T16:19:44.524Z,26.60
2022-08-19T16:24:40.079Z,26.40
2022-08-19T16:29:39.201Z,26.30
2022-08-19T16:34:40.173Z,26.10
2022-08-19T16:37:10.494Z,26.10
2022-08-19T16:39:38.753Z,26.00
2022-08-19T16:42:08.602Z,26.00
2022-08-19T16:44:40.843Z,25.90
2022-08-19T16:47:11.942Z,25.90
2022-08-19T16:49:53.656Z,25.90
2022-08-19T16:52:26.349Z,25.80
2022-08-19T16:54:54.415Z,25.80
2022-08-19T16:57:23.920Z,25.80
2022-08-19T16:59:52.452Z,25.80
2022-08-19T17:02:23.158Z,25.70
2022-08-19T17:04:57.961Z,25.70
2022-08-19T17:07:27.967Z,25.50
2022-08-19T17:09:56.418Z,25.50
2022-08-19T17:12:31.697Z,25.40
2022-08-19T17:15:01.861Z,25.40
2022-08-19T17:19:59.372Z,24.80
2022-08-19T17:22:27.203Z,25.10
2022-08-19T17:24:56.355Z,24.90
2022-08-19T17:27:26.960Z,24.90
2022-08-19T17:30:00.023Z,24.80
2022-08-19T17:32:27.971Z,24.70
2022-08-19T17:34:57.257Z,24.50
2022-08-19T17:37:25.011Z,24.50
2022-08-19T17:39:52.759Z,24.10
2022-08-19T17:42:20.452Z,24.20
2022-08-19T17:44:50.670Z,24.10
2022-08-19T17:47:19.609Z,24.10
2022-08-19T17:49:47.569Z,24.00
2022-08-19T17:52:18.339Z,23.90
2022-08-19T17:54:46.959Z,23.90
2022-08-19T17:59:42.332Z,23.80
2022-08-19T18:02:11.836Z,23.70
2022-08-19T18:04:39.315Z,23.70
2022-08-19T18:07:06.869Z,23.60
2022-08-19T18:09:42.407Z,23.60
2022-08-19T18:12:14.216Z,26.50
2022-08-19T18:14:42.436Z,23.50
2022-08-19T18:17:16.645Z,23.00
2022-08-19T18:19:45.183Z,23.30
2022-08-19T18:22:22.670Z,23.20
2022-08-19T18:29:45.698Z,23.20
2022-08-19T18:32:23.592Z,23.10
2022-08-19T18:37:20.638Z,23.00
2022-08-19T18:40:06.592Z,22.90
2022-08-19T18:48:29.822Z,22.70
2022-08-19T18:50:59.177Z,22.60
2022-08-19T18:53:34.715Z,22.50
2022-08-19T18:56:02.559Z,22.40
2022-08-19T18:58:33.948Z,22.40
2022-08-19T19:01:13.176Z,22.30
2022-08-19T19:03:53.434Z,22.30
2022-08-19T19:06:26.062Z,22.20
2022-08-19T19:08:55.171Z,22.20
2022-08-19T19:11:31.438Z,22.10
2022-08-19T19:16:33.374Z,22.00
2022-08-19T19:19:01.215Z,21.90
2022-08-19T19:21:31.944Z,21.90
2022-08-19T19:24:02.093Z,21.90
2022-08-19T19:26:29.959Z,21.80
2022-08-19T19:28:57.669Z,21.80
2022-08-19T19:31:27.033Z,21.70
2022-08-19T19:33:57.583Z,21.60
2022-08-19T19:36:25.054Z,21.50
2022-08-19T19:38:53.277Z,21.40
2022-08-19T19:41:26.466Z,21.80
2022-08-19T19:44:16.402Z,21.70
2022-08-19T19:54:10.274Z,21.10
2022-08-19T19:59:06.147Z,21.00
2022-08-19T20:01:33.869Z,20.70
2022-08-19T20:04:05.204Z,21.00
2022-08-19T20:06:34.691Z,20.90
2022-08-19T20:09:08.172Z,20.90
2022-08-19T20:11:42.496Z,20.80
2022-08-19T20:16:46.884Z,20.60
2022-08-19T20:19:19.567Z,20.70
2022-08-19T20:21:51.157Z,20.60
2022-08-19T20:24:22.973Z,20.60
2022-08-19T20:26:53.430Z,20.50
2022-08-19T20:29:38.737Z,20.50
2022-08-19T20:32:10.688Z,20.50
2022-08-19T20:34:38.638Z,20.40
2022-08-19T20:37:09.489Z,20.50
2022-08-19T20:42:05.639Z,20.40
2022-08-19T20:44:33.379Z,20.40
2022-08-19T20:47:03.587Z,20.40
2022-08-19T20:49:31.867Z,20.40
2022-08-19T20:52:04.859Z,20.40
2022-08-19T20:54:35.281Z,20.40
2022-08-19T21:02:00.221Z,20.30
2022-08-19T21:04:27.736Z,20.20
2022-08-19T21:06:55.394Z,20.20
2022-08-19T21:09:22.814Z,20.20
2022-08-19T21:11:53.746Z,20.20
2022-08-19T21:14:21.484Z,20.20
2022-08-19T21:16:50.518Z,20.10
2022-08-19T21:19:22.047Z,20.10
2022-08-19T21:21:51.376Z,19.40
2022-08-19T21:24:19.056Z,20.00
2022-08-19T21:26:51.095Z,20.00
2022-08-19T21:29:18.963Z,20.00
2022-08-19T21:31:46.409Z,20.00
2022-08-19T21:34:14.125Z,20.00
2022-08-19T21:36:41.771Z,20.00
2022-08-19T21:39:09.226Z,20.00
2022-08-19T21:41:37.486Z,19.90
2022-08-19T21:44:06.986Z,19.90
2022-08-19T21:46:34.673Z,19.80
2022-08-19T21:49:02.100Z,19.80
2022-08-19T21:51:29.618Z,19.70
2022-08-19T21:53:57.518Z,19.70
2022-08-19T21:56:25.023Z,19.60
2022-08-19T21:58:52.823Z,19.60
2022-08-19T22:01:20.560Z,19.50
2022-08-19T22:03:51.153Z,19.50
2022-08-19T22:06:19.942Z,19.50
2022-08-19T22:08:47.863Z,19.40
2022-08-19T22:11:15.245Z,19.40
2022-08-19T22:13:42.913Z,19.40
2022-08-19T22:16:10.810Z,19.30
2022-08-19T22:18:38.130Z,19.20
2022-08-19T22:21:11.294Z,19.20
2022-08-19T22:26:07.333Z,19.10
2022-08-19T22:28:37.476Z,19.10
2022-08-19T22:31:07.240Z,19.00
2022-08-19T22:33:37.521Z,19.00
2022-08-19T22:36:07.791Z,19.00
2022-08-19T22:41:03.737Z,19.10
2022-08-19T22:43:32.192Z,18.80
2022-08-19T22:46:00.316Z,18.80
2022-08-19T22:48:30.234Z,18.80
2022-08-19T22:53:46.786Z,18.60
2022-08-19T22:56:17.362Z,18.60
2022-08-19T22:58:46.336Z,18.60
2022-08-19T23:01:29.871Z,18.50
2022-08-19T23:03:59.224Z,18.50
2022-08-19T23:06:33.330Z,18.50
2022-08-19T23:09:04.587Z,18.50
2022-08-19T23:11:35.719Z,18.50
2022-08-19T23:16:37.033Z,18.50
2022-08-19T23:19:04.852Z,18.50
2022-08-19T23:21:36.223Z,18.60
2022-08-19T23:26:36.024Z,18.50
2022-08-19T23:29:24.483Z,18.40
2022-08-19T23:31:52.059Z,18.40
2022-08-19T23:34:19.522Z,18.40
2022-08-19T23:36:47.213Z,18.40
2022-08-19T23:39:14.920Z,18.40
2022-08-19T23:41:42.346Z,18.40
2022-08-19T23:44:14.687Z,18.40
2022-08-19T23:46:55.073Z,18.40
2022-08-19T23:49:26.294Z,18.30
2022-08-19T23:51:55.257Z,18.30
2022-08-19T23:54:27.585Z,18.30
2022-08-19T23:57:13.269Z,18.30
2022-08-19T23:59:45.267Z,18.30
